Unionville, Tennessee
Current Conditions -  °F | °C
As of 12:15 AM on Monday 22 Dec 2014 (Local Time) from KSYI Reporting Station
Overcast Overcast  
Wind Chill: 45°   Ceiling: 2200
Heat Index: 48°   Visibility: 10mi
Dew Point: 45°   Wind: 7mph
Humidity: 87%   Direction: 150°SSE
Pressure: 30.01"   Gusts: NA
Location:  35.62°N, 86.59°W
Report Text: KSYI 220615Z AUTO 15006KT 10SM OVC022 09/07 A3001 RMK
Loading
Personal Weather Stations






























Interactive Weather Map New forecast layout! Learn more

10-Day Weather Forecast

Advertisements
Track Severe Weather on mobile